»·PEaware :: N77CE KHND-KVNY

N77CE :: KHND-KVNY

FLIGHT INFORMATION

Flight Status: Arrived
Operator: Privately registered:
United States
More flights under this callsign
Pilot: Joshua G. (28340)
Aircraft: BEECH AIRCRAFT A90-E90 KING AIR
(BE9L)
More flights by this aircraft type
Origin: KHND Henderson
United States
Destination: KVNY Van Nuys
United States
More flights between these airports :: More routes between these airports
Route: +CRESO V538 GFS KREME JANNY5
File this flight plan on PilotEdge
Remarks:
Altitude:
(Current/Filed)
20,000ft
Speed:
(Current/Filed)
220kts
Departed: 04-Aug-20 12:07 PM
Arrived: 04-Aug-20 01:18 PM
Distance/Time
Traveled:
196nm/1:11
Distance/Time
To Go:
Arrived

Flight Plot

Page will automatically refresh every two minutes.

Flight plan parsing failed; only flown route is shown


Map Options




Map Legend


Flown Route
Filed Route
Departure Airport
Arrival Airport
Navaid (VOR, NDB)
Fix

Horizontal Profiles

Position Reports

Time Latitude Longitude Heading Altitude Ground
Speed
04-Aug-20 11:40 35.977315 -115.137428 359 2411ft 0kts
04-Aug-20 11:41 35.977315 -115.137428 359 2411ft 0kts
04-Aug-20 11:42 35.977315 -115.137428 359 2411ft 0kts
04-Aug-20 11:43 35.977315 -115.137428 359 2411ft 0kts
04-Aug-20 11:44 35.977315 -115.137428 359 2411ft 0kts
04-Aug-20 11:45 35.977315 -115.137428 359 2411ft 0kts
04-Aug-20 11:46 35.977315 -115.137428 359 2411ft 0kts
04-Aug-20 11:47 35.977315 -115.137428 359 2411ft 0kts
04-Aug-20 11:48 35.977315 -115.137428 359 2411ft 0kts
04-Aug-20 11:49 35.977315 -115.137428 359 2411ft 0kts
04-Aug-20 11:49 35.977315 -115.137428 359 2411ft 0kts
04-Aug-20 11:51 35.977315 -115.137428 359 2411ft 0kts
04-Aug-20 11:52 35.977315 -115.137428 359 2411ft 0kts
04-Aug-20 11:52 35.977315 -115.137428 359 2411ft 0kts
04-Aug-20 11:53 35.977315 -115.137428 359 2411ft 0kts
04-Aug-20 11:54 35.977315 -115.137428 359 2411ft 0kts
04-Aug-20 11:55 35.977315 -115.137428 359 2411ft 0kts
04-Aug-20 11:56 35.977315 -115.137428 359 2411ft 0kts
04-Aug-20 11:57 35.977315 -115.137428 359 2411ft 0kts
04-Aug-20 11:58 35.977315 -115.137428 359 2411ft 0kts
04-Aug-20 11:59 35.977315 -115.137428 359 2411ft 0kts
04-Aug-20 12:00 35.977315 -115.137428 359 2411ft 0kts
04-Aug-20 12:01 35.977315 -115.137428 359 2411ft 0kts
04-Aug-20 12:02 35.978048 -115.136390 359 2410ft 14kts
04-Aug-20 12:03 35.980760 -115.136269 44 2399ft 0kts
04-Aug-20 12:04 35.980762 -115.136268 46 2399ft 0kts
04-Aug-20 12:05 35.980819 -115.135930 96 2399ft 7kts
04-Aug-20 12:06 35.973190 -115.135423 182 2432ft 104kts
04-Aug-20 12:07 35.940642 -115.139371 193 4040ft 122kts
04-Aug-20 12:08 35.907034 -115.147948 191 5702ft 128kts
04-Aug-20 12:09 35.872713 -115.156267 185 7268ft 131kts
04-Aug-20 12:10 35.834589 -115.159395 182 8515ft 146kts
04-Aug-20 12:11 35.793529 -115.163322 182 9729ft 151kts
04-Aug-20 12:12 35.751312 -115.165986 177 10850ft 154kts
04-Aug-20 12:13 35.707892 -115.166392 178 11889ft 158kts
04-Aug-20 12:14 35.663801 -115.167158 178 12867ft 159kts
04-Aug-20 12:15 35.619341 -115.167943 178 13769ft 161kts
04-Aug-20 12:16 35.574497 -115.168733 178 14598ft 162kts
04-Aug-20 12:17 35.534157 -115.186067 230 15327ft 174kts
04-Aug-20 12:18 35.506058 -115.235143 230 16013ft 176kts
04-Aug-20 12:19 35.477257 -115.284165 230 16661ft 177kts
04-Aug-20 12:20 35.449424 -115.331429 229 17556ft 163kts
04-Aug-20 12:21 35.423220 -115.375651 229 18330ft 160kts
04-Aug-20 12:22 35.397039 -115.419885 229 19003ft 161kts
04-Aug-20 12:23 35.370634 -115.464460 229 19625ft 162kts
04-Aug-20 12:24 35.343735 -115.509757 229 20029ft 173kts
04-Aug-20 12:25 35.313766 -115.560337 230 20029ft 192kts
04-Aug-20 12:26 35.281556 -115.614726 230 20028ft 202kts
04-Aug-20 12:27 35.248271 -115.670768 229 20026ft 205kts
04-Aug-20 12:28 35.214557 -115.727308 229 20026ft 206kts
04-Aug-20 12:29 35.180767 -115.783850 229 20027ft 206kts
04-Aug-20 12:30 35.146902 -115.840420 229 20029ft 206kts
04-Aug-20 12:31 35.112963 -115.897021 229 20028ft 207kts
04-Aug-20 12:32 35.078923 -115.953691 229 20025ft 207kts
04-Aug-20 12:33 35.044929 -116.010196 229 20025ft 207kts
04-Aug-20 12:34 35.011023 -116.066476 230 20031ft 205kts
04-Aug-20 12:35 34.977379 -116.122232 231 20038ft 203kts
04-Aug-20 12:36 34.944030 -116.177391 232 20044ft 201kts
04-Aug-20 12:37 34.914122 -116.231105 242 20039ft 201kts
04-Aug-20 12:38 34.890227 -116.292830 244 20026ft 201kts
04-Aug-20 12:39 34.866384 -116.354416 245 20007ft 202kts
04-Aug-20 12:40 34.842359 -116.416245 245 19990ft 202kts
04-Aug-20 12:41 34.818339 -116.477958 245 19990ft 201kts
04-Aug-20 12:42 34.794352 -116.539434 245 19989ft 201kts
04-Aug-20 12:43 34.782670 -116.605411 263 19989ft 201kts
04-Aug-20 12:44 34.776320 -116.673256 262 19991ft 201kts
04-Aug-20 12:45 34.769761 -116.740952 262 19991ft 202kts
04-Aug-20 12:46 34.763135 -116.808875 262 19991ft 202kts
04-Aug-20 12:47 34.756457 -116.876793 262 19991ft 202kts
04-Aug-20 12:48 34.749632 -116.944444 262 20008ft 201kts
04-Aug-20 12:49 34.742839 -117.011531 262 20030ft 199kts
04-Aug-20 12:50 34.736078 -117.077950 262 20055ft 197kts
04-Aug-20 12:51 34.729372 -117.143464 263 20076ft 195kts
04-Aug-20 12:52 34.722624 -117.209003 263 20080ft 195kts
04-Aug-20 12:53 34.715888 -117.274084 263 20081ft 195kts
04-Aug-20 12:54 34.708886 -117.341701 263 19680ft 208kts
04-Aug-20 12:55 34.701510 -117.412682 263 19162ft 215kts
04-Aug-20 12:56 34.693702 -117.487620 263 18252ft 227kts
04-Aug-20 12:57 34.685624 -117.563980 263 17341ft 231kts
04-Aug-20 12:58 34.677359 -117.641795 263 16336ft 233kts
04-Aug-20 12:59 34.668847 -117.719796 263 15369ft 233kts
04-Aug-20 13:00 34.660395 -117.797948 263 14407ft 233kts
04-Aug-20 13:01 34.652171 -117.874304 263 13924ft 218kts
04-Aug-20 13:02 34.643964 -117.949762 263 13023ft 227kts
04-Aug-20 13:03 34.635987 -118.022084 263 12999ft 208kts
04-Aug-20 13:04 34.625351 -118.091195 257 12519ft 221kts
04-Aug-20 13:05 34.608688 -118.166628 256 11240ft 238kts
04-Aug-20 13:06 34.591152 -118.245041 256 9863ft 240kts
04-Aug-20 13:07 34.573618 -118.323283 255 8585ft 240kts
04-Aug-20 13:08 34.557327 -118.396832 254 8026ft 202kts
04-Aug-20 13:09 34.514260 -118.438188 210 6984ft 207kts
04-Aug-20 13:10 34.465664 -118.474704 212 5735ft 203kts
04-Aug-20 13:11 34.416526 -118.507586 203 4473ft 205kts
04-Aug-20 13:12 34.363947 -118.505540 174 3958ft 180kts
04-Aug-20 13:13 34.317049 -118.500174 174 3616ft 163kts
04-Aug-20 13:14 34.272163 -118.496324 175 2863ft 148kts
04-Aug-20 13:15 34.237713 -118.493082 174 1665ft 115kts
04-Aug-20 13:16 34.209410 -118.490314 175 806ft 48kts
04-Aug-20 13:17 34.207803 -118.488201 3 806ft 14kts
04-Aug-20 13:18 34.211216 -118.488470 355 806ft 17kts
04-Aug-20 13:19 34.215761 -118.488978 350 806ft 12kts
04-Aug-20 13:20 34.215849 -118.486984 96 806ft 11kts
04-Aug-20 13:21 34.216137 -118.484947 210 806ft 8kts
04-Aug-20 13:22 34.215827 -118.485015 186 806ft 0kts
04-Aug-20 13:23 34.215827 -118.485015 186 806ft 0kts

Navigation Log

Ident Type
Flight plan parsing failed, navigation log unavailable